Terminal Aerodrome Forecast
Issued by NWS

Home | Current Version | Previous Version | Text Only | Print | Product List | Glossary Off
Versions: 1 2 3 4 5 6 7 8 9 10 11 12 13 14 15 16 17 18 19 20 21 22 23

000
FTUS43 KGRB 221700
TAFAUW
TAF
KAUW 221724Z 2218/2318 22006KT 2SM BR OVC004
     FM230000 17004KT 1 1/2SM BR OVC004
     FM230500 16006KT 1SM -DZ BR OVC003
      TEMPO 2308/2312 1/4SM -RA FG VV001
     FM231200 17007KT 1/2SM -RA FG VV002
     FM231500 16007KT 1SM -RA BR OVC004=

USA.gov is the U.S. government's official web portal to all federal, state and local government web resources and services.